sensor_id;sensor_type;location;lat;lon;timestamp;P1;durP1;ratioP1;P2;durP2;ratioP2
65323;SDS011;51937;48.364;11.378;2022-09-13T00:01:45;2.20;;;1.40;;
65323;SDS011;51937;48.364;11.378;2022-09-13T00:04:13;1.75;;;1.40;;
65323;SDS011;51937;48.364;11.378;2022-09-13T00:06:38;2.00;;;1.80;;
65323;SDS011;51937;48.364;11.378;2022-09-13T00:09:05;3.13;;;1.00;;
65323;SDS011;51937;48.364;11.378;2022-09-13T00:11:30;2.03;;;1.10;;
65323;SDS011;51937;48.364;11.378;2022-09-13T00:13:56;1.33;;;1.23;;
65323;SDS011;51937;48.364;11.378;2022-09-13T00:16:22;2.45;;;0.90;;
65323;SDS011;51937;48.364;11.378;2022-09-13T00:18:50;1.05;;;0.70;;
65323;SDS011;51937;48.364;11.378;2022-09-13T00:21:17;2.42;;;1.52;;
65323;SDS011;51937;48.364;11.378;2022-09-13T00:23:48;1.42;;;0.77;;
65323;SDS011;51937;48.364;11.378;2022-09-13T00:26:21;1.10;;;1.05;;
65323;SDS011;51937;48.364;11.378;2022-09-13T00:28:52;0.98;;;0.80;;
65323;SDS011;51937;48.364;11.378;2022-09-13T00:31:20;1.10;;;0.90;;
65323;SDS011;51937;48.364;11.378;2022-09-13T00:33:47;3.15;;;1.05;;
65323;SDS011;51937;48.364;11.378;2022-09-13T00:36:13;1.77;;;1.20;;
65323;SDS011;51937;48.364;11.378;2022-09-13T00:38:43;4.38;;;1.50;;
65323;SDS011;51937;48.364;11.378;2022-09-13T00:41:12;2.42;;;1.35;;
65323;SDS011;51937;48.364;11.378;2022-09-13T00:43:41;2.15;;;1.33;;
65323;SDS011;51937;48.364;11.378;2022-09-13T00:46:07;1.45;;;1.08;;
65323;SDS011;51937;48.364;11.378;2022-09-13T00:48:32;1.25;;;1.00;;
65323;SDS011;51937;48.364;11.378;2022-09-13T00:51:00;1.70;;;1.05;;
65323;SDS011;51937;48.364;11.378;2022-09-13T00:53:29;1.45;;;1.17;;
65323;SDS011;51937;48.364;11.378;2022-09-13T00:56:01;1.70;;;1.40;;
65323;SDS011;51937;48.364;11.378;2022-09-13T00:58:34;4.97;;;1.30;;
65323;SDS011;51937;48.364;11.378;2022-09-13T01:01:04;1.55;;;1.10;;
65323;SDS011;51937;48.364;11.378;2022-09-13T01:03:33;1.75;;;1.13;;
65323;SDS011;51937;48.364;11.378;2022-09-13T01:06:01;2.03;;;1.20;;
65323;SDS011;51937;48.364;11.378;2022-09-13T01:08:31;1.40;;;1.15;;
65323;SDS011;51937;48.364;11.378;2022-09-13T01:11:00;1.48;;;1.17;;
65323;SDS011;51937;48.364;11.378;2022-09-13T01:13:29;1.40;;;1.10;;
65323;SDS011;51937;48.364;11.378;2022-09-13T01:15:59;1.95;;;1.20;;
65323;SDS011;51937;48.364;11.378;2022-09-13T01:18:26;1.20;;;1.08;;
65323;SDS011;51937;48.364;11.378;2022-09-13T01:23:25;2.05;;;1.13;;
65323;SDS011;51937;48.364;11.378;2022-09-13T01:34:54;1.10;;;1.02;;
65323;SDS011;51937;48.364;11.378;2022-09-13T01:37:49;1.75;;;1.10;;
65323;SDS011;51937;48.364;11.378;2022-09-13T01:43:33;2.00;;;1.10;;
65323;SDS011;51937;48.364;11.378;2022-09-13T01:46:12;1.25;;;1.15;;
65323;SDS011;51937;48.364;11.378;2022-09-13T01:54:03;3.88;;;1.63;;
65323;SDS011;51937;48.364;11.378;2022-09-13T01:56:49;2.17;;;1.38;;
65323;SDS011;51937;48.364;11.378;2022-09-13T01:59:21;1.55;;;1.23;;
65323;SDS011;51937;48.364;11.378;2022-09-13T02:04:20;2.10;;;0.82;;
65323;SDS011;51937;48.364;11.378;2022-09-13T02:06:50;0.95;;;0.82;;
65323;SDS011;51937;48.364;11.378;2022-09-13T02:11:53;2.17;;;1.20;;
65323;SDS011;51937;48.364;11.378;2022-09-13T02:14:24;2.58;;;1.33;;
65323;SDS011;51937;48.364;11.378;2022-09-13T02:16:57;1.52;;;1.30;;
65323;SDS011;51937;48.364;11.378;2022-09-13T02:19:35;1.70;;;1.30;;
65323;SDS011;51937;48.364;11.378;2022-09-13T02:22:07;1.35;;;1.25;;
65323;SDS011;51937;48.364;11.378;2022-09-13T02:24:56;1.63;;;1.20;;
65323;SDS011;51937;48.364;11.378;2022-09-13T02:27:27;1.83;;;1.20;;
65323;SDS011;51937;48.364;11.378;2022-09-13T02:29:57;3.40;;;1.58;;
65323;SDS011;51937;48.364;11.378;2022-09-13T02:32:35;1.50;;;1.23;;
65323;SDS011;51937;48.364;11.378;2022-09-13T02:37:38;2.58;;;1.35;;
65323;SDS011;51937;48.364;11.378;2022-09-13T02:40:09;4.35;;;1.50;;
65323;SDS011;51937;48.364;11.378;2022-09-13T02:42:47;2.30;;;1.35;;
65323;SDS011;51937;48.364;11.378;2022-09-13T02:45:17;3.13;;;1.38;;
65323;SDS011;51937;48.364;11.378;2022-09-13T02:47:58;1.85;;;1.20;;
65323;SDS011;51937;48.364;11.378;2022-09-13T02:53:26;1.23;;;1.13;;
65323;SDS011;51937;48.364;11.378;2022-09-13T02:56:04;1.88;;;1.02;;
65323;SDS011;51937;48.364;11.378;2022-09-13T03:01:16;1.83;;;1.25;;
65323;SDS011;51937;48.364;11.378;2022-09-13T03:03:42;2.28;;;1.10;;
65323;SDS011;51937;48.364;11.378;2022-09-13T03:06:08;1.88;;;1.40;;
65323;SDS011;51937;48.364;11.378;2022-09-13T03:08:34;1.33;;;1.23;;
65323;SDS011;51937;48.364;11.378;2022-09-13T03:11:10;4.72;;;1.60;;
65323;SDS011;51937;48.364;11.378;2022-09-13T03:31:03;1.65;;;1.13;;
65323;SDS011;51937;48.364;11.378;2022-09-13T03:36:20;1.05;;;0.95;;
65323;SDS011;51937;48.364;11.378;2022-09-13T03:39:03;0.80;;;0.65;;
65323;SDS011;51937;48.364;11.378;2022-09-13T03:41:38;1.55;;;0.88;;
65323;SDS011;51937;48.364;11.378;2022-09-13T03:44:10;1.13;;;0.68;;
65323;SDS011;51937;48.364;11.378;2022-09-13T03:46:43;3.63;;;1.05;;
65323;SDS011;51937;48.364;11.378;2022-09-13T03:49:12;2.75;;;0.73;;
65323;SDS011;51937;48.364;11.378;2022-09-13T03:51:39;1.23;;;1.00;;
65323;SDS011;51937;48.364;11.378;2022-09-13T03:54:19;1.98;;;1.10;;
65323;SDS011;51937;48.364;11.378;2022-09-13T03:57:06;2.47;;;0.85;;
65323;SDS011;51937;48.364;11.378;2022-09-13T03:59:40;1.30;;;1.20;;
65323;SDS011;51937;48.364;11.378;2022-09-13T04:02:09;1.58;;;0.93;;
65323;SDS011;51937;48.364;11.378;2022-09-13T04:04:35;1.10;;;1.00;;
65323;SDS011;51937;48.364;11.378;2022-09-13T04:07:01;1.48;;;0.95;;
65323;SDS011;51937;48.364;11.378;2022-09-13T04:09:29;1.15;;;0.80;;
65323;SDS011;51937;48.364;11.378;2022-09-13T04:11:56;2.17;;;0.90;;
65323;SDS011;51937;48.364;11.378;2022-09-13T04:14:21;4.88;;;0.82;;
65323;SDS011;51937;48.364;11.378;2022-09-13T04:16:50;1.30;;;1.10;;
65323;SDS011;51937;48.364;11.378;2022-09-13T04:19:15;3.33;;;0.90;;
65323;SDS011;51937;48.364;11.378;2022-09-13T04:21:45;1.02;;;1.00;;
65323;SDS011;51937;48.364;11.378;2022-09-13T04:24:18;0.93;;;0.82;;
65323;SDS011;51937;48.364;11.378;2022-09-13T04:26:44;3.42;;;0.95;;
65323;SDS011;51937;48.364;11.378;2022-09-13T04:29:13;1.40;;;0.98;;
65323;SDS011;51937;48.364;11.378;2022-09-13T04:31:38;2.22;;;1.00;;
65323;SDS011;51937;48.364;11.378;2022-09-13T04:34:04;1.05;;;0.95;;
65323;SDS011;51937;48.364;11.378;2022-09-13T04:36:30;1.88;;;1.00;;
65323;SDS011;51937;48.364;11.378;2022-09-13T04:38:56;2.00;;;1.50;;
65323;SDS011;51937;48.364;11.378;2022-09-13T04:41:21;1.60;;;1.15;;
65323;SDS011;51937;48.364;11.378;2022-09-13T04:43:49;2.25;;;1.50;;
65323;SDS011;51937;48.364;11.378;2022-09-13T04:46:15;2.22;;;1.02;;
65323;SDS011;51937;48.364;11.378;2022-09-13T04:48:41;2.20;;;1.20;;
65323;SDS011;51937;48.364;11.378;2022-09-13T04:51:07;1.58;;;1.15;;
65323;SDS011;51937;48.364;11.378;2022-09-13T04:53:33;1.40;;;1.15;;
65323;SDS011;51937;48.364;11.378;2022-09-13T04:56:03;4.90;;;1.00;;
65323;SDS011;51937;48.364;11.378;2022-09-13T04:58:29;0.75;;;0.75;;
65323;SDS011;51937;48.364;11.378;2022-09-13T05:01:02;1.23;;;0.77;;
65323;SDS011;51937;48.364;11.378;2022-09-13T05:03:29;0.65;;;0.52;;
65323;SDS011;51937;48.364;11.378;2022-09-13T05:08:30;0.60;;;0.60;;
65323;SDS011;51937;48.364;11.378;2022-09-13T05:10:55;0.63;;;0.63;;
65323;SDS011;51937;48.364;11.378;2022-09-13T05:13:23;1.63;;;1.10;;
65323;SDS011;51937;48.364;11.378;2022-09-13T05:15:49;2.03;;;1.20;;
65323;SDS011;51937;48.364;11.378;2022-09-13T05:18:18;1.63;;;1.00;;
65323;SDS011;51937;48.364;11.378;2022-09-13T05:20:44;1.58;;;1.05;;
65323;SDS011;51937;48.364;11.378;2022-09-13T05:23:09;1.33;;;1.23;;
65323;SDS011;51937;48.364;11.378;2022-09-13T05:25:35;1.70;;;1.25;;
65323;SDS011;51937;48.364;11.378;2022-09-13T05:28:00;1.50;;;1.38;;
65323;SDS011;51937;48.364;11.378;2022-09-13T05:30:26;2.20;;;1.40;;
65323;SDS011;51937;48.364;11.378;2022-09-13T05:32:51;1.42;;;1.10;;
65323;SDS011;51937;48.364;11.378;2022-09-13T05:35:17;5.78;;;1.20;;
65323;SDS011;51937;48.364;11.378;2022-09-13T05:37:42;3.30;;;1.30;;
65323;SDS011;51937;48.364;11.378;2022-09-13T05:40:07;1.20;;;1.10;;
65323;SDS011;51937;48.364;11.378;2022-09-13T05:42:33;1.48;;;1.02;;
65323;SDS011;51937;48.364;11.378;2022-09-13T05:44:58;3.58;;;1.08;;
65323;SDS011;51937;48.364;11.378;2022-09-13T05:47:24;2.10;;;1.05;;
65323;SDS011;51937;48.364;11.378;2022-09-13T05:49:49;3.83;;;1.27;;
65323;SDS011;51937;48.364;11.378;2022-09-13T05:52:14;1.88;;;1.20;;
65323;SDS011;51937;48.364;11.378;2022-09-13T05:54:39;1.25;;;0.90;;
65323;SDS011;51937;48.364;11.378;2022-09-13T05:57:05;0.90;;;0.90;;
65323;SDS011;51937;48.364;11.378;2022-09-13T05:59:30;1.48;;;1.20;;
65323;SDS011;51937;48.364;11.378;2022-09-13T06:01:56;1.42;;;1.00;;
65323;SDS011;51937;48.364;11.378;2022-09-13T06:04:22;2.65;;;1.42;;
65323;SDS011;51937;48.364;11.378;2022-09-13T06:06:47;1.27;;;0.98;;
65323;SDS011;51937;48.364;11.378;2022-09-13T06:09:13;1.63;;;1.15;;
65323;SDS011;51937;48.364;11.378;2022-09-13T06:11:38;2.15;;;1.20;;
65323;SDS011;51937;48.364;11.378;2022-09-13T06:14:04;2.05;;;1.30;;
65323;SDS011;51937;48.364;11.378;2022-09-13T06:16:29;1.73;;;1.33;;
65323;SDS011;51937;48.364;11.378;2022-09-13T06:18:54;2.58;;;1.10;;
65323;SDS011;51937;48.364;11.378;2022-09-13T06:21:21;2.28;;;1.48;;
65323;SDS011;51937;48.364;11.378;2022-09-13T06:23:47;1.48;;;1.13;;
65323;SDS011;51937;48.364;11.378;2022-09-13T06:26:19;1.73;;;1.50;;
65323;SDS011;51937;48.364;11.378;2022-09-13T06:28:46;1.52;;;1.23;;
65323;SDS011;51937;48.364;11.378;2022-09-13T06:31:13;1.75;;;1.25;;
65323;SDS011;51937;48.364;11.378;2022-09-13T06:33:40;1.65;;;1.33;;
65323;SDS011;51937;48.364;11.378;2022-09-13T06:36:08;2.40;;;1.73;;
65323;SDS011;51937;48.364;11.378;2022-09-13T06:38:35;3.38;;;1.27;;
65323;SDS011;51937;48.364;11.378;2022-09-13T06:41:10;3.30;;;1.55;;
65323;SDS011;51937;48.364;11.378;2022-09-13T06:43:38;2.28;;;1.27;;
65323;SDS011;51937;48.364;11.378;2022-09-13T06:46:05;4.57;;;1.55;;
65323;SDS011;51937;48.364;11.378;2022-09-13T06:48:35;2.38;;;1.38;;
65323;SDS011;51937;48.364;11.378;2022-09-13T06:51:03;2.67;;;1.42;;
65323;SDS011;51937;48.364;11.378;2022-09-13T06:53:30;2.05;;;1.38;;
65323;SDS011;51937;48.364;11.378;2022-09-13T06:56:03;1.70;;;1.33;;
65323;SDS011;51937;48.364;11.378;2022-09-13T06:58:30;1.80;;;1.33;;
65323;SDS011;51937;48.364;11.378;2022-09-13T07:03:39;2.08;;;1.35;;
65323;SDS011;51937;48.364;11.378;2022-09-13T07:06:07;4.55;;;1.05;;
65323;SDS011;51937;48.364;11.378;2022-09-13T07:08:53;1.73;;;1.27;;
65323;SDS011;51937;48.364;11.378;2022-09-13T07:11:20;3.35;;;1.20;;
65323;SDS011;51937;48.364;11.378;2022-09-13T07:13:50;1.23;;;1.13;;
65323;SDS011;51937;48.364;11.378;2022-09-13T07:16:17;1.13;;;1.02;;
65323;SDS011;51937;48.364;11.378;2022-09-13T07:18:44;3.67;;;1.23;;
65323;SDS011;51937;48.364;11.378;2022-09-13T07:21:14;1.40;;;1.00;;
65323;SDS011;51937;48.364;11.378;2022-09-13T07:23:40;2.45;;;0.90;;
65323;SDS011;51937;48.364;11.378;2022-09-13T07:26:05;0.63;;;0.60;;
65323;SDS011;51937;48.364;11.378;2022-09-13T07:28:33;1.88;;;0.80;;
65323;SDS011;51937;48.364;11.378;2022-09-13T07:31:08;0.60;;;0.60;;
65323;SDS011;51937;48.364;11.378;2022-09-13T07:33:37;0.68;;;0.63;;
65323;SDS011;51937;48.364;11.378;2022-09-13T07:36:04;0.60;;;0.60;;
65323;SDS011;51937;48.364;11.378;2022-09-13T07:38:33;1.52;;;0.70;;
65323;SDS011;51937;48.364;11.378;2022-09-13T07:41:00;1.50;;;0.77;;
65323;SDS011;51937;48.364;11.378;2022-09-13T07:43:26;1.95;;;0.65;;
65323;SDS011;51937;48.364;11.378;2022-09-13T07:45:59;3.53;;;1.05;;
65323;SDS011;51937;48.364;11.378;2022-09-13T07:48:26;1.33;;;0.80;;
65323;SDS011;51937;48.364;11.378;2022-09-13T07:50:59;0.80;;;0.70;;
65323;SDS011;51937;48.364;11.378;2022-09-13T07:53:36;1.48;;;0.73;;
65323;SDS011;51937;48.364;11.378;2022-09-13T07:56:06;0.85;;;0.70;;
65323;SDS011;51937;48.364;11.378;2022-09-13T07:58:33;3.92;;;0.75;;
65323;SDS011;51937;48.364;11.378;2022-09-13T08:01:01;1.02;;;0.60;;
65323;SDS011;51937;48.364;11.378;2022-09-13T08:03:37;0.70;;;0.60;;
65323;SDS011;51937;48.364;11.378;2022-09-13T08:06:03;3.40;;;0.60;;
65323;SDS011;51937;48.364;11.378;2022-09-13T08:08:30;1.95;;;0.50;;
65323;SDS011;51937;48.364;11.378;2022-09-13T08:10:56;0.70;;;0.60;;
65323;SDS011;51937;48.364;11.378;2022-09-13T08:13:21;5.15;;;0.50;;
65323;SDS011;51937;48.364;11.378;2022-09-13T08:15:47;3.45;;;0.80;;
65323;SDS011;51937;48.364;11.378;2022-09-13T08:18:13;0.77;;;0.50;;
65323;SDS011;51937;48.364;11.378;2022-09-13T08:20:39;0.30;;;0.30;;
65323;SDS011;51937;48.364;11.378;2022-09-13T08:23:05;0.80;;;0.60;;
65323;SDS011;51937;48.364;11.378;2022-09-13T08:25:31;0.60;;;0.60;;
65323;SDS011;51937;48.364;11.378;2022-09-13T08:27:59;0.50;;;0.50;;
65323;SDS011;51937;48.364;11.378;2022-09-13T08:30:25;0.50;;;0.50;;
65323;SDS011;51937;48.364;11.378;2022-09-13T08:32:57;1.52;;;0.57;;
65323;SDS011;51937;48.364;11.378;2022-09-13T08:35:22;1.10;;;0.60;;
65323;SDS011;51937;48.364;11.378;2022-09-13T08:37:48;2.17;;;0.80;;
65323;SDS011;51937;48.364;11.378;2022-09-13T08:40:14;0.55;;;0.40;;
65323;SDS011;51937;48.364;11.378;2022-09-13T08:45:29;1.08;;;0.70;;
65323;SDS011;51937;48.364;11.378;2022-09-13T08:47:56;1.85;;;0.60;;
65323;SDS011;51937;48.364;11.378;2022-09-13T08:50:35;1.30;;;0.60;;
65323;SDS011;51937;48.364;11.378;2022-09-13T08:53:10;1.20;;;0.50;;
65323;SDS011;51937;48.364;11.378;2022-09-13T08:55:50;0.73;;;0.47;;
65323;SDS011;51937;48.364;11.378;2022-09-13T09:01:39;0.90;;;0.70;;
65323;SDS011;51937;48.364;11.378;2022-09-13T09:06:58;0.93;;;0.80;;
65323;SDS011;51937;48.364;11.378;2022-09-13T09:09:40;0.85;;;0.63;;
65323;SDS011;51937;48.364;11.378;2022-09-13T09:12:41;3.30;;;0.50;;
65323;SDS011;51937;48.364;11.378;2022-09-13T09:15:14;0.57;;;0.57;;
65323;SDS011;51937;48.364;11.378;2022-09-13T09:17:49;0.70;;;0.70;;
65323;SDS011;51937;48.364;11.378;2022-09-13T09:20:32;0.50;;;0.40;;
65323;SDS011;51937;48.364;11.378;2022-09-13T09:23:07;1.10;;;0.50;;
65323;SDS011;51937;48.364;11.378;2022-09-13T09:25:38;4.32;;;0.65;;
65323;SDS011;51937;48.364;11.378;2022-09-13T09:28:16;0.57;;;0.50;;
65323;SDS011;51937;48.364;11.378;2022-09-13T09:36:26;2.17;;;0.47;;
65323;SDS011;51937;48.364;11.378;2022-09-13T09:38:55;1.20;;;0.45;;
65323;SDS011;51937;48.364;11.378;2022-09-13T09:41:28;0.40;;;0.40;;
65323;SDS011;51937;48.364;11.378;2022-09-13T09:46:42;0.80;;;0.70;;
65323;SDS011;51937;48.364;11.378;2022-09-13T09:49:14;1.52;;;0.60;;
65323;SDS011;51937;48.364;11.378;2022-09-13T09:52:02;0.95;;;0.50;;
65323;SDS011;51937;48.364;11.378;2022-09-13T09:54:31;1.08;;;0.50;;
65323;SDS011;51937;48.364;11.378;2022-09-13T09:56:59;1.55;;;0.77;;
65323;SDS011;51937;48.364;11.378;2022-09-13T09:59:26;1.90;;;0.85;;
65323;SDS011;51937;48.364;11.378;2022-09-13T10:01:56;2.15;;;0.77;;
65323;SDS011;51937;48.364;11.378;2022-09-13T10:04:23;1.50;;;0.73;;
65323;SDS011;51937;48.364;11.378;2022-09-13T10:06:49;1.00;;;0.60;;
65323;SDS011;51937;48.364;11.378;2022-09-13T10:09:31;5.38;;;0.60;;
65323;SDS011;51937;48.364;11.378;2022-09-13T10:11:57;0.80;;;0.45;;
65323;SDS011;51937;48.364;11.378;2022-09-13T10:17:17;0.82;;;0.50;;
65323;SDS011;51937;48.364;11.378;2022-09-13T10:19:51;1.10;;;0.50;;
65323;SDS011;51937;48.364;11.378;2022-09-13T10:22:19;1.38;;;0.40;;
65323;SDS011;51937;48.364;11.378;2022-09-13T10:24:47;0.77;;;0.50;;
65323;SDS011;51937;48.364;11.378;2022-09-13T10:27:27;0.82;;;0.75;;
65323;SDS011;51937;48.364;11.378;2022-09-13T10:29:57;0.50;;;0.50;;
65323;SDS011;51937;48.364;11.378;2022-09-13T10:32:26;3.28;;;0.70;;
65323;SDS011;51937;48.364;11.378;2022-09-13T10:34:52;1.60;;;0.52;;
65323;SDS011;51937;48.364;11.378;2022-09-13T10:37:20;0.95;;;0.50;;
65323;SDS011;51937;48.364;11.378;2022-09-13T10:42:25;0.30;;;0.30;;
65323;SDS011;51937;48.364;11.378;2022-09-13T10:44:54;1.55;;;0.52;;
65323;SDS011;51937;48.364;11.378;2022-09-13T10:47:23;1.40;;;0.57;;
65323;SDS011;51937;48.364;11.378;2022-09-13T10:52:28;1.85;;;0.73;;
65323;SDS011;51937;48.364;11.378;2022-09-13T10:54:54;1.00;;;0.50;;
65323;SDS011;51937;48.364;11.378;2022-09-13T10:57:35;1.85;;;0.60;;
65323;SDS011;51937;48.364;11.378;2022-09-13T11:00:04;1.27;;;0.50;;
65323;SDS011;51937;48.364;11.378;2022-09-13T11:05:11;0.85;;;0.50;;
65323;SDS011;51937;48.364;11.378;2022-09-13T11:13:12;2.35;;;0.60;;
65323;SDS011;51937;48.364;11.378;2022-09-13T11:22:02;0.50;;;0.50;;
65323;SDS011;51937;48.364;11.378;2022-09-13T11:30:11;0.40;;;0.40;;
65323;SDS011;51937;48.364;11.378;2022-09-13T11:32:48;1.65;;;0.60;;
65323;SDS011;51937;48.364;11.378;2022-09-13T11:40:54;0.55;;;0.45;;
65323;SDS011;51937;48.364;11.378;2022-09-13T11:53:59;1.20;;;0.75;;
65323;SDS011;51937;48.364;11.378;2022-09-13T11:56:49;2.83;;;0.73;;
65323;SDS011;51937;48.364;11.378;2022-09-13T12:07:46;1.95;;;0.63;;
65323;SDS011;51937;48.364;11.378;2022-09-13T12:10:36;1.20;;;0.40;;
65323;SDS011;51937;48.364;11.378;2022-09-13T12:13:03;0.70;;;0.70;;
65323;SDS011;51937;48.364;11.378;2022-09-13T12:15:38;0.40;;;0.40;;
65323;SDS011;51937;48.364;11.378;2022-09-13T12:21:15;1.23;;;0.60;;
65323;SDS011;51937;48.364;11.378;2022-09-13T12:32:14;0.65;;;0.60;;
65323;SDS011;51937;48.364;11.378;2022-09-13T12:48:32;4.15;;;0.40;;
65323;SDS011;51937;48.364;11.378;2022-09-13T12:56:53;1.15;;;0.70;;
65323;SDS011;51937;48.364;11.378;2022-09-13T13:01:59;5.95;;;0.60;;
65323;SDS011;51937;48.364;11.378;2022-09-13T13:04:28;0.75;;;0.50;;
65323;SDS011;51937;48.364;11.378;2022-09-13T13:06:59;1.45;;;1.00;;
65323;SDS011;51937;48.364;11.378;2022-09-13T13:09:39;0.50;;;0.50;;
65323;SDS011;51937;48.364;11.378;2022-09-13T13:12:07;3.45;;;0.50;;
65323;SDS011;51937;48.364;11.378;2022-09-13T13:31:09;4.22;;;0.40;;
65323;SDS011;51937;48.364;11.378;2022-09-13T13:39:09;0.40;;;0.40;;
65323;SDS011;51937;48.364;11.378;2022-09-13T13:41:38;0.35;;;0.35;;
65323;SDS011;51937;48.364;11.378;2022-09-13T13:46:40;0.55;;;0.40;;
65323;SDS011;51937;48.364;11.378;2022-09-13T13:54:56;0.30;;;0.30;;
65323;SDS011;51937;48.364;11.378;2022-09-13T14:11:45;1.63;;;0.40;;
65323;SDS011;51937;48.364;11.378;2022-09-13T14:19:51;0.30;;;0.30;;
65323;SDS011;51937;48.364;11.378;2022-09-13T14:22:26;0.90;;;0.40;;
65323;SDS011;51937;48.364;11.378;2022-09-13T14:25:35;0.30;;;0.30;;
65323;SDS011;51937;48.364;11.378;2022-09-13T14:27:44;1.20;;;0.50;;
65323;SDS011;51937;48.364;11.378;2022-09-13T14:32:43;1.08;;;0.50;;
65323;SDS011;51937;48.364;11.378;2022-09-13T14:35:29;2.58;;;1.00;;
65323;SDS011;51937;48.364;11.378;2022-09-13T14:37:55;2.20;;;0.55;;
65323;SDS011;51937;48.364;11.378;2022-09-13T14:40:33;0.93;;;0.60;;
65323;SDS011;51937;48.364;11.378;2022-09-13T14:42:59;0.22;;;0.22;;
65323;SDS011;51937;48.364;11.378;2022-09-13T14:45:28;6.68;;;0.75;;
65323;SDS011;51937;48.364;11.378;2022-09-13T14:48:07;0.57;;;0.57;;
65323;SDS011;51937;48.364;11.378;2022-09-13T14:50:40;0.40;;;0.40;;
65323;SDS011;51937;48.364;11.378;2022-09-13T14:53:13;0.55;;;0.30;;
65323;SDS011;51937;48.364;11.378;2022-09-13T14:55:42;0.30;;;0.30;;
65323;SDS011;51937;48.364;11.378;2022-09-13T14:58:14;0.40;;;0.38;;
65323;SDS011;51937;48.364;11.378;2022-09-13T15:00:51;0.50;;;0.30;;
65323;SDS011;51937;48.364;11.378;2022-09-13T15:03:22;0.55;;;0.43;;
65323;SDS011;51937;48.364;11.378;2022-09-13T15:05:49;0.73;;;0.43;;
65323;SDS011;51937;48.364;11.378;2022-09-13T15:08:25;1.95;;;0.47;;
65323;SDS011;51937;48.364;11.378;2022-09-13T15:10:56;0.40;;;0.40;;
65323;SDS011;51937;48.364;11.378;2022-09-13T15:13:22;0.30;;;0.28;;
65323;SDS011;51937;48.364;11.378;2022-09-13T15:15:47;0.57;;;0.40;;
65323;SDS011;51937;48.364;11.378;2022-09-13T15:23:16;0.60;;;0.57;;
65323;SDS011;51937;48.364;11.378;2022-09-13T15:25:48;0.90;;;0.57;;
65323;SDS011;51937;48.364;11.378;2022-09-13T15:28:20;0.38;;;0.38;;
65323;SDS011;51937;48.364;11.378;2022-09-13T15:30:57;2.42;;;0.45;;
65323;SDS011;51937;48.364;11.378;2022-09-13T15:33:31;0.60;;;0.40;;
65323;SDS011;51937;48.364;11.378;2022-09-13T15:41:38;0.75;;;0.57;;
65323;SDS011;51937;48.364;11.378;2022-09-13T15:44:05;1.13;;;0.40;;
65323;SDS011;51937;48.364;11.378;2022-09-13T15:46:53;0.40;;;0.40;;
65323;SDS011;51937;48.364;11.378;2022-09-13T15:49:20;1.48;;;0.50;;
65323;SDS011;51937;48.364;11.378;2022-09-13T15:51:52;1.05;;;0.40;;
65323;SDS011;51937;48.364;11.378;2022-09-13T15:54:19;6.00;;;0.80;;
65323;SDS011;51937;48.364;11.378;2022-09-13T15:56:46;1.13;;;0.60;;
65323;SDS011;51937;48.364;11.378;2022-09-13T15:59:15;0.38;;;0.38;;
65323;SDS011;51937;48.364;11.378;2022-09-13T16:01:42;0.40;;;0.40;;
65323;SDS011;51937;48.364;11.378;2022-09-13T16:04:09;0.50;;;0.50;;
65323;SDS011;51937;48.364;11.378;2022-09-13T16:06:35;0.40;;;0.40;;
65323;SDS011;51937;48.364;11.378;2022-09-13T16:09:00;5.00;;;0.52;;
65323;SDS011;51937;48.364;11.378;2022-09-13T16:11:26;0.50;;;0.50;;
65323;SDS011;51937;48.364;11.378;2022-09-13T16:13:52;0.45;;;0.40;;
65323;SDS011;51937;48.364;11.378;2022-09-13T16:16:18;2.15;;;0.70;;
65323;SDS011;51937;48.364;11.378;2022-09-13T16:18:43;2.83;;;0.50;;
65323;SDS011;51937;48.364;11.378;2022-09-13T16:21:09;1.05;;;0.43;;
65323;SDS011;51937;48.364;11.378;2022-09-13T16:23:34;0.55;;;0.40;;
65323;SDS011;51937;48.364;11.378;2022-09-13T16:25:59;1.10;;;0.50;;
65323;SDS011;51937;48.364;11.378;2022-09-13T16:28:25;3.25;;;0.55;;
65323;SDS011;51937;48.364;11.378;2022-09-13T16:30:51;1.45;;;0.40;;
65323;SDS011;51937;48.364;11.378;2022-09-13T16:33:17;1.25;;;0.50;;
65323;SDS011;51937;48.364;11.378;2022-09-13T16:35:44;1.00;;;0.68;;
65323;SDS011;51937;48.364;11.378;2022-09-13T16:38:09;2.17;;;0.60;;
65323;SDS011;51937;48.364;11.378;2022-09-13T16:40:37;1.48;;;0.57;;
65323;SDS011;51937;48.364;11.378;2022-09-13T16:43:03;0.45;;;0.45;;
65323;SDS011;51937;48.364;11.378;2022-09-13T16:45:28;0.77;;;0.47;;
65323;SDS011;51937;48.364;11.378;2022-09-13T16:47:53;0.70;;;0.47;;
65323;SDS011;51937;48.364;11.378;2022-09-13T16:50:18;1.40;;;0.52;;
65323;SDS011;51937;48.364;11.378;2022-09-13T16:52:44;0.70;;;0.60;;
65323;SDS011;51937;48.364;11.378;2022-09-13T16:55:09;0.85;;;0.85;;
65323;SDS011;51937;48.364;11.378;2022-09-13T16:57:35;1.70;;;1.17;;
65323;SDS011;51937;48.364;11.378;2022-09-13T17:00:01;4.05;;;0.73;;
65323;SDS011;51937;48.364;11.378;2022-09-13T17:02:32;0.98;;;0.50;;
65323;SDS011;51937;48.364;11.378;2022-09-13T17:04:57;4.10;;;1.05;;
65323;SDS011;51937;48.364;11.378;2022-09-13T17:07:23;0.65;;;0.60;;
65323;SDS011;51937;48.364;11.378;2022-09-13T17:09:48;3.97;;;0.77;;
65323;SDS011;51937;48.364;11.378;2022-09-13T17:12:14;0.82;;;0.55;;
65323;SDS011;51937;48.364;11.378;2022-09-13T17:14:40;2.03;;;0.90;;
65323;SDS011;51937;48.364;11.378;2022-09-13T17:17:14;2.78;;;1.23;;
65323;SDS011;51937;48.364;11.378;2022-09-13T17:19:41;4.38;;;1.02;;
65323;SDS011;51937;48.364;11.378;2022-09-13T17:22:08;3.00;;;1.05;;
65323;SDS011;51937;48.364;11.378;2022-09-13T17:24:35;4.13;;;1.20;;
65323;SDS011;51937;48.364;11.378;2022-09-13T17:27:01;2.70;;;0.82;;
65323;SDS011;51937;48.364;11.378;2022-09-13T17:29:28;1.35;;;0.88;;
65323;SDS011;51937;48.364;11.378;2022-09-13T17:31:55;0.52;;;0.40;;
65323;SDS011;51937;48.364;11.378;2022-09-13T17:34:21;0.40;;;0.40;;
65323;SDS011;51937;48.364;11.378;2022-09-13T17:36:47;0.88;;;0.73;;
65323;SDS011;51937;48.364;11.378;2022-09-13T17:39:12;2.08;;;0.57;;
65323;SDS011;51937;48.364;11.378;2022-09-13T17:41:38;2.15;;;0.70;;
65323;SDS011;51937;48.364;11.378;2022-09-13T17:44:03;0.68;;;0.50;;
65323;SDS011;51937;48.364;11.378;2022-09-13T17:46:29;0.70;;;0.57;;
65323;SDS011;51937;48.364;11.378;2022-09-13T17:48:55;3.95;;;0.68;;
65323;SDS011;51937;48.364;11.378;2022-09-13T17:51:23;4.05;;;0.80;;
65323;SDS011;51937;48.364;11.378;2022-09-13T17:53:51;0.77;;;0.73;;
65323;SDS011;51937;48.364;11.378;2022-09-13T17:56:22;0.47;;;0.47;;
65323;SDS011;51937;48.364;11.378;2022-09-13T17:58:54;2.03;;;0.57;;
65323;SDS011;51937;48.364;11.378;2022-09-13T18:01:20;1.17;;;0.60;;
65323;SDS011;51937;48.364;11.378;2022-09-13T18:03:46;0.40;;;0.40;;
65323;SDS011;51937;48.364;11.378;2022-09-13T18:06:11;0.82;;;0.70;;
65323;SDS011;51937;48.364;11.378;2022-09-13T18:08:39;2.20;;;1.02;;
65323;SDS011;51937;48.364;11.378;2022-09-13T18:11:07;1.20;;;0.80;;
65323;SDS011;51937;48.364;11.378;2022-09-13T18:13:34;1.23;;;1.00;;
65323;SDS011;51937;48.364;11.378;2022-09-13T18:16:02;1.77;;;1.33;;
65323;SDS011;51937;48.364;11.378;2022-09-13T18:18:35;2.90;;;1.30;;
65323;SDS011;51937;48.364;11.378;2022-09-13T18:21:01;1.90;;;1.10;;
65323;SDS011;51937;48.364;11.378;2022-09-13T18:23:27;2.65;;;0.93;;
65323;SDS011;51937;48.364;11.378;2022-09-13T18:28:29;1.00;;;0.90;;
65323;SDS011;51937;48.364;11.378;2022-09-13T18:30:56;1.10;;;0.65;;
65323;SDS011;51937;48.364;11.378;2022-09-13T18:33:22;1.60;;;0.90;;
65323;SDS011;51937;48.364;11.378;2022-09-13T18:36:05;1.35;;;0.90;;